Time;durP1;ratioP1;P1;durP2;ratioP2;P2;SDS_P1;SDS_P2;PMS_P1;PMS_P2;Temp;Humidity;BMP_temperature;BMP_pressure;BME280_temperature;BME280_humidity;BME280_pressure;Samples;Min_cycle;Max_cycle;Signal;HPM_P1;HPM_P2
2021/07/23 00:00:06;;;;;;;5.10;4.57;;;16.90;99.90;;;;;;5073755;28;20086;-67
2021/07/23 00:02:31;;;;;;;5.85;5.35;;;16.90;99.90;;;;;;5072101;28;20045;-67
2021/07/23 00:04:57;;;;;;;6.25;4.93;;;16.90;99.90;;;;;;5067414;28;20129;-67
2021/07/23 00:07:23;;;;;;;5.55;5.00;;;16.90;99.90;;;;;;5073399;28;20041;-67
2021/07/23 00:09:48;;;;;;;5.80;5.20;;;16.90;99.90;;;;;;5073845;28;20178;-67
2021/07/23 00:12:15;;;;;;;6.45;5.05;;;16.90;99.90;;;;;;5073650;28;20036;-67
2021/07/23 00:14:40;;;;;;;5.13;4.63;;;16.90;99.90;;;;;;5072785;28;20566;-67
2021/07/23 00:17:06;;;;;;;6.68;5.00;;;16.90;99.90;;;;;;5073839;28;20466;-67
2021/07/23 00:19:31;;;;;;;6.25;4.88;;;16.90;99.90;;;;;;5073664;28;20044;-67
2021/07/23 00:21:58;;;;;;;5.25;4.63;;;17.00;99.90;;;;;;5072296;28;20112;-67
2021/07/23 00:24:24;;;;;;;5.88;4.55;;;16.90;99.90;;;;;;5073380;28;20028;-67
2021/07/23 00:26:51;;;;;;;5.82;5.22;;;16.90;99.90;;;;;;5073284;28;20055;-67
2021/07/23 00:29:18;;;;;;;7.28;6.00;;;17.00;99.90;;;;;;5073286;28;20041;-67
2021/07/23 00:31:43;;;;;;;5.28;4.88;;;17.00;99.90;;;;;;5073308;28;20091;-67
2021/07/23 00:34:09;;;;;;;7.75;6.40;;;17.00;99.90;;;;;;5073365;28;20049;-67
2021/07/23 00:36:35;;;;;;;8.73;6.03;;;17.00;99.90;;;;;;5073128;28;20040;-67
2021/07/23 00:39:00;;;;;;;8.40;7.60;;;17.00;99.90;;;;;;5060594;28;20443;-67
2021/07/23 00:41:26;;;;;;;8.40;7.10;;;17.00;99.90;;;;;;5053190;28;20468;-67
2021/07/23 00:43:51;;;;;;;8.15;7.35;;;17.00;99.90;;;;;;5064816;28;20052;-67
2021/07/23 00:46:17;;;;;;;8.52;7.57;;;17.00;99.90;;;;;;5092786;28;20051;-67
2021/07/23 00:48:43;;;;;;;10.23;7.38;;;17.00;99.90;;;;;;5073349;28;20094;-67
2021/07/23 00:51:09;;;;;;;8.55;6.85;;;17.00;99.90;;;;;;5072493;28;20479;-67
2021/07/23 00:53:34;;;;;;;7.97;7.18;;;17.00;99.90;;;;;;5071912;28;20459;-68
2021/07/23 00:56:01;;;;;;;8.27;7.47;;;17.00;99.90;;;;;;5070976;28;20400;-69
2021/07/23 00:58:28;;;;;;;8.80;7.28;;;17.00;99.90;;;;;;5071358;28;20048;-69
2021/07/23 01:00:57;;;;;;;8.02;7.32;;;17.00;99.90;;;;;;5071862;28;20116;-68
2021/07/23 01:03:23;;;;;;;7.43;6.72;;;17.00;99.90;;;;;;5052855;28;20044;-67
2021/07/23 01:05:51;;;;;;;7.70;7.00;;;17.00;99.90;;;;;;5058261;28;20064;-67
2021/07/23 01:08:17;;;;;;;7.82;7.10;;;17.00;99.90;;;;;;5056494;28;20043;-67
2021/07/23 01:10:43;;;;;;;7.30;6.60;;;17.00;99.90;;;;;;5072496;28;20040;-68
2021/07/23 01:13:11;;;;;;;8.77;7.80;;;17.00;99.90;;;;;;5070808;28;20048;-67
2021/07/23 01:15:38;;;;;;;7.63;6.90;;;17.00;99.90;;;;;;5071653;28;20474;-67
2021/07/23 01:18:04;;;;;;;6.85;6.25;;;17.00;99.90;;;;;;5072328;28;20036;-67
2021/07/23 01:20:29;;;;;;;8.05;6.38;;;17.00;99.90;;;;;;5071803;28;20035;-67
2021/07/23 01:22:59;;;;;;;7.05;6.35;;;17.00;99.90;;;;;;5072237;28;20083;-67
2021/07/23 01:25:27;;;;;;;7.20;6.60;;;17.00;99.90;;;;;;5072173;28;20044;-67
2021/07/23 01:27:54;;;;;;;7.47;6.50;;;17.00;99.90;;;;;;5054415;28;20032;-67
2021/07/23 01:30:24;;;;;;;8.25;7.53;;;17.00;99.90;;;;;;5070699;28;20029;-67
2021/07/23 01:32:51;;;;;;;9.60;8.00;;;17.00;99.90;;;;;;5072135;28;20119;-67
2021/07/23 01:35:17;;;;;;;8.50;7.60;;;17.00;99.90;;;;;;5072139;28;20036;-67
2021/07/23 01:37:46;;;;;;;8.95;8.05;;;17.00;99.90;;;;;;5071680;28;20040;-67
2021/07/23 01:40:13;;;;;;;9.20;8.32;;;17.00;99.90;;;;;;5072304;28;20044;-67
2021/07/23 01:42:40;;;;;;;8.68;7.88;;;17.00;99.90;;;;;;5054139;28;20050;-67
2021/07/23 01:45:06;;;;;;;13.02;8.32;;;17.00;99.90;;;;;;5083471;28;20110;-67
2021/07/23 01:47:32;;;;;;;8.88;7.95;;;17.10;99.90;;;;;;5073298;28;20094;-67
2021/07/23 01:49:58;;;;;;;19.55;8.63;;;17.10;99.90;;;;;;5071986;28;20044;-67
2021/07/23 01:52:24;;;;;;;9.18;8.38;;;17.00;99.90;;;;;;5071739;28;20079;-67
2021/07/23 01:54:50;;;;;;;10.18;7.30;;;17.00;99.90;;;;;;5071989;28;20040;-67
2021/07/23 01:57:15;;;;;;;7.40;6.70;;;17.10;99.90;;;;;;5071710;28;20036;-67
2021/07/23 01:59:41;;;;;;;8.15;7.38;;;17.00;99.90;;;;;;5053728;28;20045;-67
2021/07/23 02:02:07;;;;;;;8.20;7.28;;;17.00;99.90;;;;;;5070559;28;20046;-67
2021/07/23 02:04:36;;;;;;;8.50;7.40;;;17.00;99.90;;;;;;5071332;28;20489;-67
2021/07/23 02:07:02;;;;;;;9.45;7.25;;;17.00;99.90;;;;;;5065029;28;20043;-67
2021/07/23 02:09:28;;;;;;;11.73;8.98;;;17.00;99.90;;;;;;5071866;28;20062;-67
2021/07/23 02:11:54;;;;;;;9.48;8.18;;;17.00;99.90;;;;;;5071351;28;20028;-67
2021/07/23 02:14:21;;;;;;;9.45;8.38;;;17.00;99.90;;;;;;5071110;28;20041;-67
2021/07/23 02:16:47;;;;;;;9.38;8.48;;;17.00;99.90;;;;;;5071516;28;20052;-67
2021/07/23 02:19:13;;;;;;;9.55;8.40;;;17.00;99.90;;;;;;5070017;28;20037;-67
2021/07/23 02:21:40;;;;;;;9.13;8.23;;;17.00;99.90;;;;;;5071435;28;20063;-67
2021/07/23 02:24:06;;;;;;;9.07;8.15;;;17.00;99.90;;;;;;5071653;28;20040;-67
2021/07/23 02:26:32;;;;;;;9.75;8.70;;;17.00;99.90;;;;;;5071625;28;20127;-67
2021/07/23 02:28:57;;;;;;;9.57;8.60;;;17.00;99.90;;;;;;5071407;28;20111;-67
2021/07/23 02:31:26;;;;;;;9.70;8.70;;;17.00;99.90;;;;;;5071671;28;20402;-67
2021/07/23 02:33:52;;;;;;;10.57;8.98;;;17.00;99.90;;;;;;5071056;28;20044;-67
2021/07/23 02:36:17;;;;;;;9.55;8.23;;;17.00;99.90;;;;;;5049421;28;20041;-67
2021/07/23 02:38:43;;;;;;;8.90;8.00;;;17.00;99.90;;;;;;5068671;28;20530;-67
2021/07/23 02:41:09;;;;;;;11.15;7.80;;;17.00;99.90;;;;;;5071661;28;20818;-67
2021/07/23 02:43:35;;;;;;;10.27;9.23;;;17.00;99.90;;;;;;5053419;28;20037;-67
2021/07/23 02:46:00;;;;;;;9.23;8.25;;;17.00;99.90;;;;;;5067530;28;20437;-67
2021/07/23 02:48:26;;;;;;;9.90;8.35;;;17.00;99.90;;;;;;5071221;28;20064;-67
2021/07/23 02:50:52;;;;;;;10.40;9.20;;;17.00;99.90;;;;;;5057565;28;20041;-67
2021/07/23 02:53:18;;;;;;;9.88;8.88;;;17.00;99.90;;;;;;5063089;28;20044;-67
2021/07/23 02:55:45;;;;;;;11.13;8.98;;;17.00;99.90;;;;;;5071401;28;20110;-67
2021/07/23 02:58:10;;;;;;;9.98;9.00;;;17.00;99.90;;;;;;5071058;28;20643;-67
2021/07/23 03:00:36;;;;;;;10.30;9.20;;;17.00;99.90;;;;;;5071021;28;20048;-67
2021/07/23 03:03:04;;;;;;;9.73;8.70;;;17.00;99.90;;;;;;5070876;28;20050;-67
2021/07/23 03:05:30;;;;;;;9.38;8.30;;;17.00;99.90;;;;;;5070627;28;20049;-67
2021/07/23 03:07:55;;;;;;;10.50;8.90;;;17.00;99.90;;;;;;5065612;28;20085;-67
2021/07/23 03:10:21;;;;;;;10.73;8.57;;;17.10;99.90;;;;;;5071219;28;20070;-67
2021/07/23 03:12:47;;;;;;;10.27;9.18;;;17.00;99.90;;;;;;5069874;28;20074;-67
2021/07/23 03:15:13;;;;;;;10.02;8.55;;;17.10;99.90;;;;;;5070927;28;20041;-67
2021/07/23 03:17:39;;;;;;;10.15;8.38;;;17.10;99.90;;;;;;5070631;28;20432;-67
2021/07/23 03:20:06;;;;;;;9.60;8.70;;;17.10;99.90;;;;;;5069965;28;20046;-67
2021/07/23 03:22:32;;;;;;;9.55;8.65;;;17.10;99.90;;;;;;5069924;28;20565;-67
2021/07/23 03:24:58;;;;;;;12.13;8.48;;;17.10;99.90;;;;;;5070708;28;20481;-67
2021/07/23 03:27:23;;;;;;;10.25;8.25;;;17.10;99.90;;;;;;5073570;28;20031;-67
2021/07/23 03:29:49;;;;;;;10.00;8.40;;;17.00;99.90;;;;;;5072177;28;20033;-67
2021/07/23 03:32:15;;;;;;;8.73;7.93;;;17.10;99.90;;;;;;5073455;28;20552;-67
2021/07/23 03:34:40;;;;;;;11.05;8.10;;;17.10;99.90;;;;;;5074336;28;20044;-67
2021/07/23 03:37:06;;;;;;;7.95;7.15;;;17.10;99.90;;;;;;5074528;28;20044;-67
2021/07/23 03:39:32;;;;;;;12.10;7.50;;;17.10;99.90;;;;;;5074045;28;20540;-67
2021/07/23 03:41:58;;;;;;;8.63;7.07;;;17.10;99.90;;;;;;5074067;28;20148;-67
2021/07/23 03:44:23;;;;;;;7.85;6.97;;;17.10;99.90;;;;;;5078748;28;20039;-67
2021/07/23 03:46:49;;;;;;;8.40;7.45;;;17.10;99.90;;;;;;5093518;28;20036;-67
2021/07/23 03:49:15;;;;;;;10.32;7.32;;;17.10;99.90;;;;;;5055092;28;20033;-67
2021/07/23 03:51:40;;;;;;;8.00;7.13;;;17.00;99.90;;;;;;5068457;28;20116;-67
2021/07/23 03:54:06;;;;;;;9.95;6.95;;;17.00;99.90;;;;;;5073926;28;20033;-67
2021/07/23 03:56:32;;;;;;;8.00;7.20;;;17.00;99.90;;;;;;5073079;28;20049;-67
2021/07/23 03:58:59;;;;;;;8.45;6.70;;;17.00;99.90;;;;;;5073520;28;20033;-67
2021/07/23 04:01:25;;;;;;;8.52;6.50;;;17.10;99.90;;;;;;5072090;28;20045;-67
2021/07/23 04:03:50;;;;;;;7.68;6.85;;;17.10;99.90;;;;;;5073281;28;20075;-67
2021/07/23 04:06:16;;;;;;;7.10;6.15;;;17.10;99.90;;;;;;5055075;28;20425;-67
2021/07/23 04:08:42;;;;;;;6.88;6.22;;;17.10;99.90;;;;;;5071816;28;20147;-67
2021/07/23 04:11:15;;;;;;;8.45;6.82;;;17.10;99.90;;;;;;5072091;28;20047;-67
2021/07/23 04:13:41;;;;;;;9.15;6.65;;;17.10;99.90;;;;;;5072115;28;20089;-67
2021/07/23 04:16:08;;;;;;;9.60;6.65;;;17.10;99.90;;;;;;5071710;28;20040;-67
2021/07/23 04:18:34;;;;;;;8.90;6.10;;;17.10;99.90;;;;;;5071173;28;20036;-67
2021/07/23 04:21:04;;;;;;;8.05;6.07;;;17.10;99.90;;;;;;5072429;28;20040;-67
2021/07/23 04:23:30;;;;;;;8.35;6.60;;;17.10;99.90;;;;;;5073135;28;20044;-67
2021/07/23 04:25:56;;;;;;;8.23;6.00;;;17.10;99.90;;;;;;5072391;28;20029;-67
2021/07/23 04:28:22;;;;;;;7.07;5.63;;;17.10;99.90;;;;;;5072181;28;20086;-67
2021/07/23 04:30:48;;;;;;;8.05;6.13;;;17.10;99.90;;;;;;5071612;28;21636;-67
2021/07/23 04:33:13;;;;;;;10.10;6.20;;;17.00;99.90;;;;;;5072610;28;20041;-67
2021/07/23 04:35:39;;;;;;;6.57;5.97;;;17.10;99.90;;;;;;5054204;28;20471;-67
2021/07/23 04:38:04;;;;;;;6.90;6.20;;;17.00;99.90;;;;;;5071123;28;20115;-67
2021/07/23 04:40:30;;;;;;;8.05;6.28;;;17.10;99.90;;;;;;5072167;28;20483;-67
2021/07/23 04:42:56;;;;;;;7.50;6.70;;;17.10;99.90;;;;;;5071504;28;20045;-67
2021/07/23 04:45:22;;;;;;;9.10;6.40;;;17.10;99.90;;;;;;5056854;28;20040;-67
2021/07/23 04:47:47;;;;;;;7.53;5.63;;;17.10;99.90;;;;;;5068807;28;20036;-67
2021/07/23 04:50:13;;;;;;;8.73;6.03;;;17.10;99.90;;;;;;5072077;28;20028;-67
2021/07/23 04:52:39;;;;;;;8.02;6.45;;;17.10;99.90;;;;;;5072669;28;20068;-67
2021/07/23 04:55:08;;;;;;;7.93;6.65;;;17.10;99.90;;;;;;5053727;28;20033;-68
2021/07/23 04:57:42;;;;;;;8.50;6.32;;;17.10;99.90;;;;;;5071010;28;20032;-68
2021/07/23 05:00:09;;;;;;;8.77;6.28;;;17.10;99.90;;;;;;5070015;28;20032;-68
2021/07/23 05:02:36;;;;;;;8.93;6.53;;;17.10;99.90;;;;;;5071411;28;20076;-66
2021/07/23 05:05:02;;;;;;;8.63;6.43;;;17.10;99.90;;;;;;5057898;28;20045;-66
2021/07/23 05:07:28;;;;;;;7.47;6.13;;;17.20;99.90;;;;;;5054864;28;20553;-66
2021/07/23 05:09:53;;;;;;;8.68;6.97;;;17.20;99.90;;;;;;5069653;28;20089;-66
2021/07/23 05:12:19;;;;;;;8.02;7.20;;;17.20;99.90;;;;;;5071342;28;20040;-66
2021/07/23 05:14:45;;;;;;;6.95;6.25;;;17.20;99.90;;;;;;5071515;28;20044;-66
2021/07/23 05:17:11;;;;;;;7.90;6.90;;;17.30;99.90;;;;;;5072017;28;20045;-66
2021/07/23 05:19:38;;;;;;;8.85;6.90;;;17.30;99.90;;;;;;5066405;28;20040;-66
2021/07/23 05:22:05;;;;;;;7.90;6.57;;;17.30;99.90;;;;;;5071904;28;20493;-66
2021/07/23 05:24:31;;;;;;;7.25;6.03;;;17.30;99.90;;;;;;5071552;28;20481;-66
2021/07/23 05:26:58;;;;;;;8.27;6.00;;;17.20;99.90;;;;;;5070858;28;20040;-66
2021/07/23 05:29:23;;;;;;;7.47;6.57;;;17.30;99.90;;;;;;5071416;28;20124;-66
2021/07/23 05:31:49;;;;;;;10.57;7.00;;;17.30;99.90;;;;;;5070955;28;20131;-66
2021/07/23 05:34:15;;;;;;;6.72;5.78;;;17.30;99.90;;;;;;5071116;28;20462;-66
2021/07/23 05:36:40;;;;;;;7.45;6.63;;;17.40;99.90;;;;;;5051965;28;20058;-66
2021/07/23 05:39:07;;;;;;;7.50;6.70;;;17.40;99.90;;;;;;5071137;28;20039;-66
2021/07/23 05:41:33;;;;;;;9.30;7.05;;;17.40;99.90;;;;;;5053190;28;20119;-66
2021/07/23 05:43:58;;;;;;;7.85;6.03;;;17.40;99.90;;;;;;5072074;28;20411;-66
2021/07/23 05:46:24;;;;;;;7.40;6.65;;;17.40;99.90;;;;;;5071542;28;20116;-66
2021/07/23 05:48:50;;;;;;;8.20;6.88;;;17.40;99.90;;;;;;5070318;28;20115;-66
2021/07/23 05:51:15;;;;;;;9.77;7.38;;;17.40;99.90;;;;;;5052133;28;20047;-66
2021/07/23 05:53:41;;;;;;;7.40;6.68;;;17.40;99.90;;;;;;5070122;28;20062;-66
2021/07/23 05:56:07;;;;;;;9.20;6.93;;;17.40;99.90;;;;;;5071311;28;20037;-66
2021/07/23 05:58:33;;;;;;;7.57;6.47;;;17.50;99.90;;;;;;5070798;28;20041;-66
2021/07/23 06:01:03;;;;;;;7.35;6.60;;;17.40;99.90;;;;;;5067552;28;20071;-66
2021/07/23 06:03:28;;;;;;;7.40;6.68;;;17.50;99.90;;;;;;5071294;28;20072;-66
2021/07/23 06:05:54;;;;;;;9.02;6.57;;;17.50;99.90;;;;;;5070643;28;20059;-66
2021/07/23 06:08:19;;;;;;;10.52;6.95;;;17.50;99.90;;;;;;5064988;28;20843;-66
2021/07/23 06:10:45;;;;;;;10.35;7.40;;;17.50;99.90;;;;;;5066994;28;20047;-69
2021/07/23 06:13:11;;;;;;;9.48;6.70;;;17.50;99.90;;;;;;5070571;28;20122;-66
2021/07/23 06:15:36;;;;;;;8.35;6.93;;;17.50;99.90;;;;;;5071203;28;20062;-67
2021/07/23 06:18:02;;;;;;;9.70;6.97;;;17.50;99.90;;;;;;5066270;23;20052;-67
2021/07/23 06:20:28;;;;;;;10.27;7.50;;;17.50;99.90;;;;;;5071284;28;20045;-66
2021/07/23 06:22:57;;;;;;;9.90;6.93;;;17.50;99.90;;;;;;5071108;28;20036;-66
2021/07/23 06:25:24;;;;;;;11.27;6.25;;;17.50;99.90;;;;;;5049957;28;20044;-66
2021/07/23 06:27:50;;;;;;;9.43;7.03;;;17.60;99.90;;;;;;5062350;28;20037;-66
2021/07/23 06:30:16;;;;;;;8.88;7.35;;;17.60;99.90;;;;;;5071175;28;20162;-67
2021/07/23 06:32:41;;;;;;;9.13;7.53;;;17.60;99.90;;;;;;5070355;28;20374;-66
2021/07/23 06:35:07;;;;;;;11.25;7.38;;;17.60;99.90;;;;;;5070146;28;20070;-66
2021/07/23 06:37:33;;;;;;;9.15;7.38;;;17.60;99.90;;;;;;5070945;28;20033;-66
2021/07/23 06:39:59;;;;;;;8.07;7.28;;;17.70;99.90;;;;;;5070829;28;20492;-66
2021/07/23 06:42:25;;;;;;;9.95;7.72;;;17.70;99.90;;;;;;5056956;28;20052;-66
2021/07/23 06:44:54;;;;;;;8.65;7.78;;;17.70;99.90;;;;;;5067373;28;20066;-66
2021/07/23 06:47:20;;;;;;;8.65;7.78;;;17.80;99.90;;;;;;5072552;28;20036;-73
2021/07/23 06:49:48;;;;;;;12.10;9.45;;;17.80;99.90;;;;;;5052289;28;20033;-73
2021/07/23 06:52:13;;;;;;;9.90;8.90;;;17.90;99.90;;;;;;5064244;28;20037;-73
2021/07/23 06:54:39;;;;;;;11.38;10.15;;;17.90;99.90;;;;;;5070545;28;20123;-73
2021/07/23 06:57:05;;;;;;;10.50;9.50;;;17.80;99.90;;;;;;5070592;28;20131;-73
2021/07/23 06:59:34;;;;;;;14.68;11.70;;;17.90;99.90;;;;;;5068191;28;20098;-73
2021/07/23 07:02:01;;;;;;;13.50;12.20;;;17.90;99.90;;;;;;5073063;28;20370;-73
2021/07/23 07:04:27;;;;;;;13.48;12.07;;;17.90;99.90;;;;;;5076030;28;20550;-74
2021/07/23 07:06:59;;;;;;;13.27;11.88;;;17.80;99.90;;;;;;5050327;28;20047;-74
2021/07/23 07:09:26;;;;;;;14.82;13.35;;;17.90;99.90;;;;;;5071107;28;20044;-74
2021/07/23 07:11:52;;;;;;;14.32;12.82;;;17.90;99.90;;;;;;5071930;28;20032;-74
2021/07/23 07:14:18;;;;;;;15.40;13.95;;;17.90;99.90;;;;;;5072725;28;20040;-74
2021/07/23 07:16:44;;;;;;;15.77;14.18;;;18.00;99.90;;;;;;5072773;28;20068;-74
2021/07/23 07:19:10;;;;;;;14.68;13.18;;;17.90;99.90;;;;;;5073355;28;20040;-75
2021/07/23 07:21:36;;;;;;;14.10;12.75;;;17.70;99.90;;;;;;5072579;28;20032;-75
2021/07/23 07:24:02;;;;;;;15.95;12.85;;;17.80;99.90;;;;;;5073453;28;20048;-73
2021/07/23 07:26:28;;;;;;;15.02;13.45;;;17.90;99.90;;;;;;5073510;28;20037;-74
2021/07/23 07:28:55;;;;;;;15.07;13.60;;;17.80;99.90;;;;;;5055575;28;20038;-74
2021/07/23 07:31:20;;;;;;;15.35;13.93;;;17.80;99.90;;;;;;5055619;28;20036;-74
2021/07/23 07:33:46;;;;;;;16.15;14.10;;;17.80;99.90;;;;;;5073388;28;20040;-74
2021/07/23 07:36:21;;;;;;;16.55;14.25;;;17.70;99.90;;;;;;5074670;28;20055;-73
2021/07/23 07:38:47;;;;;;;15.82;14.38;;;17.70;99.90;;;;;;5071852;28;20037;-74
2021/07/23 07:41:20;;;;;;;15.15;13.55;;;17.80;99.90;;;;;;5070452;28;20480;-74
2021/07/23 07:43:46;;;;;;;15.95;14.38;;;18.00;99.90;;;;;;5072062;28;20040;-73
2021/07/23 07:46:12;;;;;;;14.48;12.95;;;18.00;99.90;;;;;;5073247;28;20093;-74
2021/07/23 07:48:37;;;;;;;16.95;15.25;;;18.10;99.90;;;;;;5073125;28;20033;-73
2021/07/23 07:51:03;;;;;;;16.80;15.10;;;18.20;99.90;;;;;;5073412;28;20112;-73
2021/07/23 07:53:29;;;;;;;18.98;14.65;;;18.20;99.90;;;;;;5072949;28;20044;-74
2021/07/23 07:55:54;;;;;;;16.65;14.80;;;18.30;99.90;;;;;;5070524;28;20048;-73
2021/07/23 07:58:20;;;;;;;16.58;14.88;;;18.40;99.90;;;;;;5054865;28;20052;-74
2021/07/23 08:00:46;;;;;;;16.10;14.40;;;18.40;99.90;;;;;;5055240;28;20036;-73
2021/07/23 08:03:11;;;;;;;16.65;15.05;;;18.50;99.90;;;;;;5055261;28;20045;-73
2021/07/23 08:05:37;;;;;;;15.25;13.63;;;18.60;99.90;;;;;;5073253;28;20035;-73
2021/07/23 08:08:04;;;;;;;15.73;14.02;;;18.60;99.90;;;;;;5070364;28;20032;-72
2021/07/23 08:10:33;;;;;;;14.93;13.43;;;18.60;99.90;;;;;;5068428;28;20103;-73
2021/07/23 08:12:59;;;;;;;17.63;14.15;;;18.70;99.90;;;;;;5070436;28;20496;-72
2021/07/23 08:15:25;;;;;;;16.02;14.45;;;18.80;99.90;;;;;;5071001;28;20064;-73
2021/07/23 08:17:52;;;;;;;11.10;9.98;;;18.80;99.90;;;;;;5042311;28;20049;-73
2021/07/23 08:20:18;;;;;;;12.75;11.43;;;19.00;99.90;;;;;;5050797;28;20041;-73
2021/07/23 08:22:45;;;;;;;11.00;9.98;;;19.00;99.90;;;;;;5072777;28;20049;-73
2021/07/23 08:25:11;;;;;;;13.30;10.50;;;19.10;99.90;;;;;;5073144;28;20032;-73
2021/07/23 08:27:37;;;;;;;12.02;10.93;;;19.20;99.90;;;;;;5054687;28;20045;-73
2021/07/23 08:30:03;;;;;;;11.73;10.52;;;19.30;99.90;;;;;;5070699;28;20040;-73
2021/07/23 08:32:36;;;;;;;10.55;9.55;;;19.30;99.90;;;;;;5070972;28;20037;-73
2021/07/23 08:35:05;;;;;;;10.38;8.57;;;19.40;99.90;;;;;;5052962;28;20040;-73
2021/07/23 08:37:31;;;;;;;9.88;8.48;;;19.50;99.90;;;;;;5066386;28;20462;-73
2021/07/23 08:39:56;;;;;;;9.25;8.45;;;19.60;99.90;;;;;;5072497;28;20041;-73
2021/07/23 08:42:26;;;;;;;9.48;8.48;;;19.70;99.90;;;;;;5072683;28;20693;-73
2021/07/23 08:44:52;;;;;;;10.00;8.88;;;19.70;99.90;;;;;;5054292;28;20041;-73
2021/07/23 08:47:18;;;;;;;10.65;9.27;;;19.80;99.90;;;;;;5072580;28;20043;-73
2021/07/23 08:49:44;;;;;;;10.27;9.02;;;19.80;99.90;;;;;;5071431;28;20107;-73
2021/07/23 08:52:10;;;;;;;11.68;8.82;;;19.90;99.90;;;;;;5072570;28;20123;-73
2021/07/23 08:54:35;;;;;;;8.88;7.88;;;19.80;99.90;;;;;;5072776;28;20036;-73
2021/07/23 08:57:01;;;;;;;10.38;9.38;;;19.90;99.90;;;;;;5072355;28;20094;-73
2021/07/23 08:59:27;;;;;;;9.52;8.63;;;20.00;99.90;;;;;;5061693;28;20032;-73
2021/07/23 09:02:00;;;;;;;13.52;8.63;;;20.00;99.90;;;;;;5071684;28;20161;-73
2021/07/23 09:04:26;;;;;;;16.63;8.63;;;20.10;99.90;;;;;;5072580;28;20041;-74
2021/07/23 09:07:12;;;;;;;8.93;8.00;;;20.10;99.90;;;;;;5071763;28;20024;-73
2021/07/23 09:09:38;;;;;;;9.38;8.13;;;20.20;99.90;;;;;;5071984;28;20048;-73
2021/07/23 09:12:04;;;;;;;8.70;7.65;;;20.30;99.90;;;;;;5049062;28;20041;-73
2021/07/23 09:14:29;;;;;;;8.32;7.53;;;20.30;99.90;;;;;;5071131;28;20059;-73
2021/07/23 09:16:56;;;;;;;7.18;6.47;;;20.30;99.90;;;;;;5071815;28;20053;-74
2021/07/23 09:19:21;;;;;;;8.93;7.25;;;20.50;99.90;;;;;;5045982;28;20090;-74
2021/07/23 09:21:55;;;;;;;8.93;7.53;;;20.60;99.90;;;;;;5071870;28;20045;-73
2021/07/23 09:24:22;;;;;;;10.57;7.40;;;20.50;99.90;;;;;;5072026;28;20367;-74
2021/07/23 09:26:48;;;;;;;8.07;7.28;;;20.60;99.90;;;;;;5053773;28;20037;-73
2021/07/23 09:29:14;;;;;;;7.45;6.72;;;20.70;99.90;;;;;;5071889;28;20123;-73
2021/07/23 09:31:42;;;;;;;9.65;6.53;;;20.80;99.90;;;;;;5053629;28;20405;-74
2021/07/23 09:34:07;;;;;;;8.68;7.15;;;21.10;99.90;;;;;;5071558;28;20470;-73
2021/07/23 09:36:33;;;;;;;7.15;6.32;;;21.30;99.90;;;;;;5070101;28;20107;-74
2021/07/23 09:39:07;;;;;;;7.20;5.93;;;21.50;99.40;;;;;;5071624;28;20075;-73
2021/07/23 09:41:34;;;;;;;6.40;5.68;;;21.80;98.70;;;;;;5071850;28;20029;-68
2021/07/23 09:44:12;;;;;;;8.13;6.57;;;22.00;97.70;;;;;;5071062;28;20120;-63
2021/07/23 09:46:42;;;;;;;7.68;5.97;;;21.60;96.50;;;;;;5070501;28;20096;-63
2021/07/23 09:49:28;;;;;;;7.03;6.00;;;21.50;97.10;;;;;;5069945;28;20040;-63
2021/07/23 09:51:55;;;;;;;8.73;6.45;;;22.00;97.30;;;;;;5070603;28;20127;-63
2021/07/23 09:54:21;;;;;;;8.00;6.82;;;22.30;97.00;;;;;;5066711;28;20037;-59
2021/07/23 09:56:49;;;;;;;7.28;6.57;;;22.20;95.60;;;;;;5070603;28;20036;-63
2021/07/23 09:59:37;;;;;;;7.57;6.82;;;22.50;96.60;;;;;;5071208;28;20036;-62
2021/07/23 10:02:06;;;;;;;8.10;7.15;;;22.60;96.30;;;;;;5030993;28;20383;-62
2021/07/23 10:04:41;;;;;;;7.80;6.93;;;22.80;95.80;;;;;;5071434;28;20044;-62
2021/07/23 10:07:19;;;;;;;17.10;7.40;;;22.80;95.80;;;;;;5052415;28;20086;-62
2021/07/23 10:09:47;;;;;;;6.65;6.03;;;22.80;96.00;;;;;;5071099;28;20033;-63
2021/07/23 10:12:16;;;;;;;7.82;6.85;;;22.80;95.80;;;;;;5066888;28;20135;-62
2021/07/23 10:14:46;;;;;;;7.13;6.43;;;22.80;94.70;;;;;;5074652;28;20047;-62
2021/07/23 10:17:12;;;;;;;7.45;6.40;;;22.50;95.60;;;;;;5069591;28;20056;-63
2021/07/23 10:19:38;;;;;;;7.43;6.72;;;22.60;95.90;;;;;;5069611;28;20485;-63
2021/07/23 10:22:05;;;;;;;7.90;6.78;;;22.30;95.00;;;;;;5067908;28;20041;-63
2021/07/23 10:24:36;;;;;;;7.25;6.55;;;21.90;95.70;;;;;;5069356;28;20386;-62
2021/07/23 10:27:09;;;;;;;7.55;6.80;;;21.40;96.00;;;;;;5070532;28;20043;-62
2021/07/23 10:29:45;;;;;;;7.90;7.10;;;21.80;96.50;;;;;;5067496;28;20106;-63
2021/07/23 10:32:23;;;;;;;8.10;7.25;;;21.90;95.90;;;;;;5069918;28;20079;-63
2021/07/23 10:34:49;;;;;;;8.32;6.70;;;21.90;94.80;;;;;;5070687;28;20042;-63
2021/07/23 10:37:30;;;;;;;7.07;6.38;;;22.10;95.90;;;;;;5068098;28;20121;-63
2021/07/23 10:40:08;;;;;;;6.90;6.20;;;22.00;94.40;;;;;;5071053;28;20032;-63
2021/07/23 10:42:44;;;;;;;7.53;6.30;;;22.20;94.10;;;;;;5069973;28;20068;-63
2021/07/23 10:45:19;;;;;;;7.20;6.22;;;22.20;93.60;;;;;;5069629;28;20039;-63
2021/07/23 10:47:50;;;;;;;6.63;5.97;;;22.20;93.90;;;;;;5069036;28;20032;-63
2021/07/23 10:50:38;;;;;;;6.15;5.55;;;22.20;94.30;;;;;;5070462;28;20072;-63
2021/07/23 10:53:31;;;;;;;6.25;5.63;;;22.50;95.10;;;;;;5057599;28;20088;-63
2021/07/23 10:55:57;;;;;;;6.90;6.30;;;22.70;95.20;;;;;;5070291;28;20048;-64
2021/07/23 10:58:29;;;;;;;7.50;5.47;;;22.80;94.40;;;;;;5070323;28;20378;-64
2021/07/23 11:00:59;;;;;;;6.78;5.45;;;22.70;94.30;;;;;;5069779;28;20033;-63
2021/07/23 11:03:45;;;;;;;6.80;6.13;;;22.40;94.10;;;;;;5067592;28;20040;-63
2021/07/23 11:06:18;;;;;;;6.68;5.50;;;22.40;95.10;;;;;;5068707;28;20537;-63
2021/07/23 11:08:54;;;;;;;6.22;5.63;;;22.40;95.90;;;;;;5067704;28;20367;-63
2021/07/23 11:11:25;;;;;;;5.95;5.32;;;22.60;95.00;;;;;;5070801;28;20056;-63
2021/07/23 11:13:50;;;;;;;6.20;5.60;;;22.70;95.20;;;;;;5070953;28;20040;-63
2021/07/23 11:16:18;;;;;;;6.32;5.07;;;22.80;94.50;;;;;;5070530;28;20126;-63
2021/07/23 11:19:17;;;;;;;7.95;6.15;;;22.90;94.20;;;;;;5069012;28;20036;-63
2021/07/23 11:21:43;;;;;;;7.32;5.57;;;22.70;93.10;;;;;;5070893;28;20355;-63
2021/07/23 11:24:10;;;;;;;6.32;5.20;;;23.00;94.10;;;;;;5070334;28;20174;-63
2021/07/23 11:26:38;;;;;;;6.45;5.70;;;23.10;93.90;;;;;;5070275;28;20037;-63
2021/07/23 11:29:04;;;;;;;7.75;5.50;;;23.30;94.00;;;;;;5069787;28;20028;-63
2021/07/23 11:31:36;;;;;;;6.47;5.20;;;23.60;93.60;;;;;;5045346;28;20043;-63
2021/07/23 11:34:25;;;;;;;6.88;6.15;;;23.40;92.70;;;;;;5070342;28;20040;-63
2021/07/23 11:36:52;;;;;;;6.68;5.70;;;23.40;91.80;;;;;;5066087;28;20036;-63
2021/07/23 11:39:25;;;;;;;7.18;6.28;;;23.60;92.70;;;;;;5052369;28;20040;-63
2021/07/23 11:41:57;;;;;;;7.38;6.10;;;23.70;92.10;;;;;;5069989;28;20064;-62
2021/07/23 11:44:23;;;;;;;7.22;6.20;;;23.90;92.80;;;;;;5069825;28;20079;-62
2021/07/23 11:46:48;;;;;;;6.30;5.68;;;24.00;92.60;;;;;;5069500;28;20075;-62
2021/07/23 11:49:14;;;;;;;7.03;5.80;;;24.00;92.40;;;;;;5072732;28;20458;-62
2021/07/23 11:51:43;;;;;;;6.47;5.88;;;24.00;92.40;;;;;;5073101;28;20139;-62
2021/07/23 11:54:10;;;;;;;5.10;4.60;;;24.00;92.40;;;;;;5053575;28;20453;-61
2021/07/23 11:56:36;;;;;;;8.02;6.00;;;23.60;91.90;;;;;;5056016;28;20054;-63
2021/07/23 11:59:05;;;;;;;7.55;5.80;;;23.30;92.10;;;;;;5073070;28;20040;-62
2021/07/23 12:01:38;;;;;;;6.25;5.30;;;22.60;92.00;;;;;;5073757;28;20040;-63
2021/07/23 12:04:05;;;;;;;9.05;6.32;;;22.70;93.10;;;;;;5070938;28;20121;-62
2021/07/23 12:06:31;;;;;;;6.15;5.55;;;22.90;93.40;;;;;;5072490;28;20375;-62
2021/07/23 12:09:01;;;;;;;6.95;5.97;;;23.10;93.60;;;;;;5072858;28;20047;-62
2021/07/23 12:11:30;;;;;;;9.32;6.30;;;23.30;93.00;;;;;;5056587;28;20041;-62
2021/07/23 12:13:56;;;;;;;6.45;5.57;;;23.30;92.60;;;;;;5071563;28;20094;-62
2021/07/23 12:16:22;;;;;;;7.88;6.07;;;23.40;92.90;;;;;;5073057;28;20121;-63
2021/07/23 12:18:59;;;;;;;6.93;6.05;;;23.50;92.30;;;;;;5071252;28;20124;-62
2021/07/23 12:21:26;;;;;;;7.05;5.90;;;23.60;92.10;;;;;;5052835;28;20033;-66
2021/07/23 12:24:06;;;;;;;7.40;6.32;;;23.60;92.70;;;;;;5053013;28;20044;-66
2021/07/23 12:26:40;;;;;;;9.37;6.30;;;23.40;92.20;;;;;;5060474;28;20045;-66
2021/07/23 12:29:13;;;;;;;7.18;5.85;;;23.30;91.80;;;;;;5075267;28;20039;-66
2021/07/23 12:31:39;;;;;;;7.45;6.43;;;22.80;92.20;;;;;;5071167;28;20044;-66
2021/07/23 12:34:18;;;;;;;6.13;5.45;;;22.40;93.80;;;;;;5065386;28;20359;-66
2021/07/23 12:36:50;;;;;;;5.75;4.28;;;22.40;93.80;;;;;;5073063;28;20131;-66
2021/07/23 12:39:16;;;;;;;5.75;5.00;;;22.40;94.10;;;;;;5072910;28;20501;-66
2021/07/23 12:41:45;;;;;;;7.05;5.55;;;22.30;94.70;;;;;;5067219;28;20105;-66
2021/07/23 12:44:12;;;;;;;5.95;5.35;;;22.20;95.50;;;;;;5052793;28;20081;-65